Time;durP1;ratioP1;P1;durP2;ratioP2;P2;SDS_P1;SDS_P2;PMS_P1;PMS_P2;Temp;Humidity;BMP_temperature;BMP_pressure;BME280_temperature;BME280_humidity;BME280_pressure;Samples;Min_cycle;Max_cycle;Signal;HPM_P1;HPM_P2
2023/08/14 00:00:09;;;;;;;9.70;6.47;;;;;;;21.26;100.00;101780.16;2508169;23;20526;-64
2023/08/14 00:01:09;;;;;;;11.83;6.40;;;;;;;21.19;100.00;101777.69;2520950;23;20563;-64
2023/08/14 00:02:10;;;;;;;12.00;6.40;;;;;;;21.17;100.00;101777.38;2521082;23;20402;-64
2023/08/14 00:03:10;;;;;;;12.37;6.00;;;;;;;21.13;100.00;101782.44;2520708;23;20151;-64
2023/08/14 00:04:11;;;;;;;8.93;6.00;;;;;;;21.13;100.00;101788.06;2521329;23;20624;-64
2023/08/14 00:05:11;;;;;;;8.33;6.00;;;;;;;21.12;100.00;101787.28;2521326;23;20616;-64
2023/08/14 00:06:12;;;;;;;12.93;6.37;;;;;;;21.10;100.00;101784.16;2520812;23;20198;-63
2023/08/14 00:07:12;;;;;;;12.10;6.90;;;;;;;21.09;100.00;101787.44;2520470;23;20209;-64
2023/08/14 00:08:12;;;;;;;10.53;6.33;;;;;;;21.09;100.00;101781.81;2521108;23;20147;-64
2023/08/14 00:09:13;;;;;;;11.07;6.50;;;;;;;21.09;100.00;101788.22;2521078;23;20151;-64
2023/08/14 00:10:13;;;;;;;8.90;5.50;;;;;;;21.10;100.00;101781.34;2520912;23;20178;-64
2023/08/14 00:11:14;;;;;;;9.63;6.00;;;;;;;21.09;100.00;101779.00;2521042;23;20597;-64
2023/08/14 00:12:14;;;;;;;9.00;5.83;;;;;;;21.07;100.00;101779.47;2521378;23;20147;-64
2023/08/14 00:13:19;;;;;;;7.10;5.80;;;;;;;21.08;100.00;101788.72;2521136;23;20178;-64
2023/08/14 00:14:19;;;;;;;10.47;6.20;;;;;;;21.06;100.00;101783.56;2520865;23;20213;-64
2023/08/14 00:15:20;;;;;;;7.43;5.63;;;;;;;21.09;100.00;101790.28;2520990;23;20434;-63
2023/08/14 00:16:21;;;;;;;7.97;5.20;;;;;;;21.09;100.00;101787.44;2520340;23;20189;-64
2023/08/14 00:17:21;;;;;;;6.77;5.30;;;;;;;20.87;100.00;101751.03;2520434;23;20151;-64
2023/08/14 00:18:21;;;;;;;8.50;5.07;;;;;;;21.08;100.00;101789.47;2508106;23;20191;-64
2023/08/14 00:19:22;;;;;;;8.03;5.20;;;;;;;21.00;100.00;101774.19;2508567;23;20159;-64
2023/08/14 00:20:22;;;;;;;7.43;5.20;;;;;;;21.02;100.00;101804.69;2520354;23;20147;-64
2023/08/14 00:21:23;;;;;;;8.93;5.60;;;;;;;21.03;100.00;101773.22;2521280;23;20206;-64
2023/08/14 00:22:24;;;;;;;6.33;4.80;;;;;;;21.06;100.00;101783.56;2521070;23;20594;-64
2023/08/14 00:23:24;;;;;;;7.13;5.37;;;;;;;21.08;100.00;101783.06;2521180;23;20783;-64
2023/08/14 00:24:25;;;;;;;7.30;5.33;;;;;;;21.07;100.00;101782.28;2520898;23;20555;-64
2023/08/14 00:25:25;;;;;;;10.13;6.10;;;;;;;21.05;100.00;101787.63;2521323;23;20147;-64
2023/08/14 00:26:25;;;;;;;13.33;6.30;;;;;;;21.09;100.00;101784.63;2520273;23;20156;-64
2023/08/14 00:27:26;;;;;;;10.53;6.40;;;;;;;21.07;100.00;101782.28;2520902;23;20147;-63
2023/08/14 00:28:26;;;;;;;18.67;6.93;;;;;;;21.08;100.00;101786.66;2521024;23;20613;-64
2023/08/14 00:29:27;;;;;;;17.70;7.03;;;;;;;21.06;100.00;101777.13;2521119;23;20500;-64
2023/08/14 00:30:27;;;;;;;18.57;6.27;;;;;;;21.08;100.00;101789.47;2520603;23;20178;-63
2023/08/14 00:31:28;;;;;;;8.30;5.80;;;;;;;21.09;100.00;101782.56;2520801;23;20155;-64
2023/08/14 00:32:28;;;;;;;9.43;5.90;;;;;;;21.04;100.00;101776.81;2520386;23;20409;-64
2023/08/14 00:33:29;;;;;;;5.33;4.80;;;;;;;20.96;100.00;101781.22;2521248;23;20497;-64
2023/08/14 00:34:29;;;;;;;6.73;5.00;;;;;;;20.91;100.00;101785.50;2520815;23;20155;-64
2023/08/14 00:35:29;;;;;;;6.87;5.10;;;;;;;20.75;100.00;101754.84;2508520;23;20235;-63
2023/08/14 00:36:30;;;;;;;8.10;5.30;;;;;;;20.92;100.00;101781.41;2507768;23;20144;-64
2023/08/14 00:37:47;;;;;;;5.63;4.80;;;;;;;19.95;100.00;101632.75;2520864;23;20218;-63
2023/08/14 00:38:48;;;;;;;9.80;5.53;;;;;;;20.80;100.00;101782.38;2521037;23;20147;-64
2023/08/14 00:39:48;;;;;;;7.70;5.50;;;;;;;20.75;100.00;101787.84;2507827;23;20452;-64
2023/08/14 00:40:49;;;;;;;7.93;5.50;;;;;;;20.79;100.00;101786.47;2508343;23;20166;-63
2023/08/14 00:41:49;;;;;;;9.43;5.40;;;;;;;20.77;100.00;101788.19;2521223;23;20210;-64
2023/08/14 00:42:49;;;;;;;6.70;4.93;;;;;;;20.56;100.00;101770.25;2520992;23;20543;-63
2023/08/14 00:43:51;;;;;;;7.30;5.10;;;;;;;20.71;100.00;101793.66;2520992;23;20155;-64
2023/08/14 00:44:51;;;;;;;6.23;5.63;;;;;;;20.64;100.00;101793.22;2520885;23;20155;-64
2023/08/14 00:45:55;;;;;;;6.50;5.00;;;;;;;20.66;100.00;101788.69;2520016;23;20467;-64
2023/08/14 00:46:56;;;;;;;10.40;5.70;;;;;;;20.61;100.00;101785.69;2520851;23;20243;-64
2023/08/14 00:47:57;;;;;;;6.43;5.00;;;;;;;20.58;100.00;101793.06;2520710;23;20387;-64
2023/08/14 00:48:58;;;;;;;8.03;5.47;;;;;;;20.56;100.00;101791.97;2520687;23;20158;-63
2023/08/14 00:49:58;;;;;;;9.07;6.17;;;;;;;20.13;100.00;101731.25;2520667;23;20178;-64
2023/08/14 00:50:59;;;;;;;6.23;5.20;;;;;;;20.48;100.00;101797.19;2520638;23;20386;-64
2023/08/14 00:52:00;;;;;;;7.43;5.33;;;;;;;20.47;100.00;101792.78;2520408;23;20254;-64
2023/08/14 00:53:02;;;;;;;7.17;5.63;;;;;;;20.42;100.00;101795.47;2521060;23;20509;-64
2023/08/14 00:54:03;;;;;;;7.70;6.00;;;;;;;20.43;100.00;101797.03;2520674;23;20158;-64
2023/08/14 00:55:08;;;;;;;8.90;5.83;;;;;;;20.38;100.00;101801.28;2520881;23;20458;-63
2023/08/14 00:56:08;;;;;;;9.50;5.77;;;;;;;20.38;100.00;101795.63;2520547;23;20214;-64
2023/08/14 00:57:08;;;;;;;11.53;6.13;;;;;;;20.43;100.00;101800.63;2520689;23;20434;-64
2023/08/14 00:58:09;;;;;;;11.20;6.53;;;;;;;20.43;100.00;101791.41;2520996;23;20689;-64
2023/08/14 00:59:10;;;;;;;12.60;6.93;;;;;;;20.45;100.00;101788.88;2520582;23;20222;-64
2023/08/14 01:00:12;;;;;;;18.77;7.60;;;;;;;20.45;100.00;101789.66;2519577;23;20293;-64
2023/08/14 01:01:12;;;;;;;18.30;6.93;;;;;;;20.47;100.00;101792.03;2520909;23;20713;-64
2023/08/14 01:02:14;;;;;;;10.93;6.30;;;;;;;20.48;100.00;101790.75;2521070;23;20478;-64
2023/08/14 01:03:16;;;;;;;11.23;6.17;;;;;;;20.50;100.00;101782.59;2520888;23;20175;-64
2023/08/14 01:04:16;;;;;;;13.97;5.87;;;;;;;20.50;100.00;101793.88;2521006;23;20383;-64
2023/08/14 01:05:17;;;;;;;11.97;6.00;;;;;;;20.51;100.00;101792.63;2520929;23;20407;-64
2023/08/14 01:06:17;;;;;;;7.37;5.30;;;;;;;20.52;100.00;101797.78;2520378;23;20154;-64
2023/08/14 01:07:18;;;;;;;7.37;5.40;;;;;;;20.53;100.00;101790.13;2520706;23;20199;-64
2023/08/14 01:08:18;;;;;;;7.90;5.83;;;;;;;20.52;100.00;101791.38;2520983;23;20539;-64
2023/08/14 01:09:19;;;;;;;7.13;5.10;;;;;;;20.54;100.00;101786.84;2520431;23;20540;-64
2023/08/14 01:10:20;;;;;;;7.70;5.60;;;;;;;20.53;100.00;101787.31;2520414;23;20158;-64
2023/08/14 01:11:28;;;;;;;7.40;5.43;;;;;;;20.55;100.00;101782.75;2520838;23;20210;-64
2023/08/14 01:12:52;;;;;;;9.50;5.63;;;;;;;20.56;100.00;101789.94;2520804;23;20139;-64
2023/08/14 01:14:18;;;;;;;8.73;5.87;;;;;;;20.58;100.00;101784.63;2520761;23;20758;-64
2023/08/14 01:15:44;;;;;;;7.27;6.03;;;;;;;20.22;100.00;101744.53;2519897;23;20399;-64
2023/08/14 01:16:50;;;;;;;9.47;6.00;;;;;;;20.52;100.00;101788.56;2520673;23;20446;-65
2023/08/14 01:17:55;;;;;;;9.47;5.80;;;;;;;20.53;100.00;101792.94;2520434;23;20984;-64
2023/08/14 01:18:59;;;;;;;15.10;7.40;;;;;;;20.55;100.00;101790.41;2507934;23;20383;-65
2023/08/14 01:20:00;;;;;;;13.33;6.27;;;;;;;20.55;100.00;101790.41;2508004;23;20409;-64
2023/08/14 01:21:06;;;;;;;9.47;6.30;;;;;;;20.56;100.00;101789.94;2520755;23;20733;-65
2023/08/14 01:22:10;;;;;;;11.20;6.20;;;;;;;20.56;100.00;101803.25;2520944;23;20379;-64
2023/08/14 01:23:39;;;;;;;9.63;6.20;;;;;;;20.51;100.00;101784.97;2520793;23;20379;-64
2023/08/14 01:25:24;;;;;;;10.43;5.90;;;;;;;20.49;100.00;101790.28;2520766;23;20379;-64
2023/08/14 01:26:26;;;;;;;12.23;6.30;;;;;;;19.91;100.00;101707.31;2483443;23;20394;-64
2023/08/14 01:27:27;;;;;;;10.83;6.17;;;;;;;20.48;100.00;101788.75;2520549;23;20375;-64
2023/08/14 01:28:28;;;;;;;7.87;6.23;;;;;;;20.50;100.00;101793.88;2519892;23;20414;-64
2023/08/14 01:29:33;;;;;;;7.13;6.37;;;;;;;20.49;100.00;101795.13;2520549;23;20206;-64
2023/08/14 01:30:34;;;;;;;7.87;6.07;;;;;;;20.50;100.00;101785.44;2520285;23;20419;-65
2023/08/14 01:31:34;;;;;;;9.23;5.97;;;;;;;20.53;100.00;101787.31;2520812;23;20940;-64
2023/08/14 01:32:34;;;;;;;8.13;6.37;;;;;;;20.54;100.00;101788.88;2520635;23;20159;-64
2023/08/14 01:33:35;;;;;;;8.67;6.30;;;;;;;20.55;100.00;101788.41;2520987;23;20183;-64
2023/08/14 01:34:35;;;;;;;9.37;6.23;;;;;;;20.59;100.00;101796.69;2520719;23;20163;-64
2023/08/14 01:35:43;;;;;;;12.20;6.60;;;;;;;20.57;100.00;101793.56;2520770;23;20505;-64
2023/08/14 01:36:50;;;;;;;15.00;6.90;;;;;;;20.61;100.00;101796.97;2520733;23;20144;-64
2023/08/14 01:38:02;;;;;;;11.33;7.00;;;;;;;20.63;100.00;101800.88;2520622;23;20923;-64
2023/08/14 01:39:07;;;;;;;8.90;6.37;;;;;;;20.62;100.00;101792.91;2520904;23;20367;-64
2023/08/14 01:40:33;;;;;;;9.67;6.60;;;;;;;20.66;100.00;101787.88;2519952;23;20383;-64
2023/08/14 01:41:47;;;;;;;6.73;6.03;;;;;;;20.67;100.00;101795.88;2520967;23;20355;-64
2023/08/14 01:42:50;;;;;;;7.10;6.03;;;;;;;20.66;100.00;101796.34;2520360;23;20689;-64
2023/08/14 01:43:55;;;;;;;10.17;5.87;;;;;;;20.67;100.00;101793.03;2520449;23;20383;-64
2023/08/14 01:45:06;;;;;;;9.73;6.17;;;;;;;20.68;100.00;101791.78;2520649;23;20375;-64
2023/08/14 01:46:09;;;;;;;10.87;6.40;;;;;;;20.22;100.00;101736.06;2520393;23;20699;-64
2023/08/14 01:47:12;;;;;;;10.60;6.50;;;;;;;20.02;100.00;101690.72;2520392;23;20455;-64
2023/08/14 01:48:14;;;;;;;12.77;6.70;;;;;;;20.19;100.00;101722.94;2520676;23;20846;-65
2023/08/14 01:49:17;;;;;;;14.43;6.80;;;;;;;20.74;100.00;101801.19;2520833;23;20731;-65
2023/08/14 01:50:21;;;;;;;10.83;7.20;;;;;;;20.70;100.00;101791.31;2519840;23;20379;-64
2023/08/14 01:51:22;;;;;;;11.40;6.67;;;;;;;20.78;100.00;101801.00;2520815;23;20435;-64
2023/08/14 01:52:23;;;;;;;8.57;6.20;;;;;;;20.79;100.00;101799.75;2520539;23;20147;-64
2023/08/14 01:53:24;;;;;;;12.33;7.13;;;;;;;20.27;100.00;101715.72;2520863;23;20375;-64
2023/08/14 01:54:25;;;;;;;9.63;6.10;;;;;;;20.73;100.00;101779.88;2520229;23;20195;-64
2023/08/14 01:55:25;;;;;;;8.40;6.17;;;;;;;20.86;100.00;101802.22;2521003;23;20151;-64
2023/08/14 01:56:26;;;;;;;10.67;5.80;;;;;;;20.88;100.00;101797.66;2519995;23;20147;-64
2023/08/14 01:57:27;;;;;;;8.57;5.83;;;;;;;20.87;100.00;101800.97;2507407;23;20164;-64
2023/08/14 01:58:27;;;;;;;10.67;6.17;;;;;;;20.88;100.00;101811.00;2507873;23;20291;-64
2023/08/14 01:59:54;;;;;;;7.00;5.77;;;;;;;20.89;100.00;101807.75;2520864;23;20387;-64
2023/08/14 02:00:54;;;;;;;6.77;5.97;;;;;;;20.88;100.00;101806.13;2513337;23;20600;-64
2023/08/14 02:01:55;;;;;;;8.93;6.47;;;;;;;20.89;100.00;101804.09;2520807;23;20560;-64
2023/08/14 02:02:57;;;;;;;9.60;6.07;;;;;;;20.90;100.00;101803.66;2520599;23;20155;-65
2023/08/14 02:03:57;;;;;;;12.63;6.37;;;;;;;20.92;100.00;101803.94;2507965;23;20221;-65
2023/08/14 02:04:58;;;;;;;10.53;6.30;;;;;;;20.35;100.00;101720.56;2508001;23;20391;-65
2023/08/14 02:05:58;;;;;;;11.23;6.93;;;;;;;20.91;100.00;101816.50;2507484;23;20219;-65
2023/08/14 02:06:58;;;;;;;12.70;6.73;;;;;;;20.90;100.00;101800.84;2520672;23;20340;-64
2023/08/14 02:07:59;;;;;;;16.90;7.10;;;;;;;20.91;100.00;101808.03;2520677;23;20155;-64
2023/08/14 02:08:59;;;;;;;11.10;6.73;;;;;;;20.91;100.00;101802.41;2520596;23;20624;-64
2023/08/14 02:10:00;;;;;;;14.43;6.83;;;;;;;20.62;100.00;101765.53;2520318;23;20155;-64
2023/08/14 02:11:09;;;;;;;12.63;7.07;;;;;;;20.90;100.00;101802.88;2520282;23;20182;-64
2023/08/14 02:12:09;;;;;;;17.53;7.77;;;;;;;20.92;100.00;101811.63;2520101;23;20147;-64
2023/08/14 02:13:09;;;;;;;12.53;7.10;;;;;;;20.91;100.00;101815.69;2520614;23;20391;-64
2023/08/14 02:14:10;;;;;;;14.10;6.93;;;;;;;20.90;100.00;101809.28;2520576;23;20155;-65
2023/08/14 02:15:10;;;;;;;12.13;6.10;;;;;;;20.88;100.00;101808.19;2520632;23;20257;-64
2023/08/14 02:16:11;;;;;;;11.97;6.80;;;;;;;20.83;100.00;101798.31;2520178;23;20552;-64
2023/08/14 02:17:11;;;;;;;12.67;6.80;;;;;;;20.84;100.00;101808.34;2520545;23;20155;-64
2023/08/14 02:18:13;;;;;;;12.57;6.73;;;;;;;20.91;100.00;101810.06;2520398;23;20179;-64
2023/08/14 02:19:13;;;;;;;8.80;6.30;;;;;;;20.20;100.00;101704.78;2520844;23;20590;-64
2023/08/14 02:20:14;;;;;;;10.33;6.33;;;;;;;20.79;100.00;101800.53;2520181;23;20447;-64
2023/08/14 02:21:14;;;;;;;8.77;5.90;;;;;;;20.64;100.00;101774.28;2520083;23;20166;-65
2023/08/14 02:22:15;;;;;;;8.87;6.10;;;;;;;20.84;100.00;101811.16;2520847;23;20147;-64
2023/08/14 02:23:15;;;;;;;6.67;5.60;;;;;;;20.79;100.00;101811.81;2507855;23;20671;-64
2023/08/14 02:24:16;;;;;;;9.73;5.03;;;;;;;20.77;100.00;101817.13;2508046;23;20226;-65
2023/08/14 02:25:16;;;;;;;6.13;5.07;;;;;;;20.70;100.00;101808.22;2520746;23;20147;-64
2023/08/14 02:26:17;;;;;;;12.43;5.63;;;;;;;20.70;100.00;101820.28;2519972;23;20151;-64
2023/08/14 02:27:17;;;;;;;7.30;5.50;;;;;;;20.41;100.00;101777.78;2520451;23;20182;-64
2023/08/14 02:28:17;;;;;;;9.27;5.40;;;;;;;20.66;100.00;101816.84;2520778;23;20147;-64
2023/08/14 02:29:18;;;;;;;7.63;6.10;;;;;;;20.70;100.00;101825.91;2520628;23;20218;-64
2023/08/14 02:30:18;;;;;;;7.47;6.37;;;;;;;20.61;100.00;101823.13;2520153;23;20171;-64
2023/08/14 02:31:19;;;;;;;7.90;5.83;;;;;;;20.58;100.00;101823.28;2520285;23;20151;-64
2023/08/14 02:32:20;;;;;;;9.80;6.30;;;;;;;20.53;100.00;101819.03;2520436;23;20182;-64
2023/08/14 02:33:20;;;;;;;8.43;6.50;;;;;;;20.57;100.00;101830.16;2520710;23;20147;-64
2023/08/14 02:34:42;;;;;;;8.77;6.57;;;;;;;20.58;100.00;101831.72;2519815;23;20514;-64
2023/08/14 02:35:43;;;;;;;7.10;6.37;;;;;;;20.02;100.00;101747.81;2520550;23;20147;-64
2023/08/14 02:36:43;;;;;;;7.70;6.53;;;;;;;20.54;100.00;101834.72;2520631;23;20387;-64
2023/08/14 02:37:44;;;;;;;7.10;6.40;;;;;;;20.56;100.00;101832.19;2520332;23;20617;-64
2023/08/14 02:38:44;;;;;;;7.67;6.43;;;;;;;20.57;100.00;101833.00;2520914;23;20151;-64
2023/08/14 02:39:45;;;;;;;11.87;6.20;;;;;;;20.58;100.00;101831.72;2521225;23;20155;-64
2023/08/14 02:40:46;;;;;;;10.87;6.60;;;;;;;20.15;100.00;101768.13;2507920;23;20239;-64
2023/08/14 02:41:46;;;;;;;10.63;6.67;;;;;;;20.60;100.00;101832.81;2508371;23;20156;-64
2023/08/14 02:42:46;;;;;;;8.50;6.80;;;;;;;20.61;100.00;101833.59;2521434;23;20171;-64
2023/08/14 02:43:47;;;;;;;9.43;6.60;;;;;;;20.59;100.00;101836.09;2521546;23;20151;-64
2023/08/14 02:44:47;;;;;;;17.57;7.80;;;;;;;19.89;100.00;101727.47;2521255;23;20151;-65
2023/08/14 02:45:48;;;;;;;25.23;8.80;;;;;;;20.61;100.00;101834.38;2521145;23;20162;-64
2023/08/14 02:46:48;;;;;;;24.87;8.27;;;;;;;20.59;100.00;101834.09;2521349;23;20147;-64
2023/08/14 02:47:49;;;;;;;24.10;7.70;;;;;;;20.61;100.00;101833.59;2521264;23;20162;-65
2023/08/14 02:48:49;;;;;;;19.97;7.80;;;;;;;20.57;100.00;101838.63;2521371;23;20210;-65
2023/08/14 02:49:49;;;;;;;18.67;7.57;;;;;;;20.52;100.00;101837.19;2521106;23;20152;-64
2023/08/14 02:50:50;;;;;;;10.57;7.07;;;;;;;20.49;100.00;101834.56;2521331;23;20234;-64
2023/08/14 02:51:50;;;;;;;12.93;7.43;;;;;;;20.48;100.00;101847.88;2521144;23;20161;-64
2023/08/14 02:52:51;;;;;;;11.70;6.90;;;;;;;20.48;100.00;101842.25;2521265;23;20214;-65
2023/08/14 02:53:51;;;;;;;9.60;7.40;;;;;;;20.44;100.00;101838.78;2521439;23;20178;-64
2023/08/14 02:54:52;;;;;;;9.20;6.80;;;;;;;20.47;100.00;101840.66;2520436;23;20233;-64
2023/08/14 02:55:52;;;;;;;9.33;6.90;;;;;;;20.41;100.00;101844.59;2520502;23;20152;-65
2023/08/14 02:56:53;;;;;;;7.87;7.07;;;;;;;19.48;100.00;101688.75;2521192;23;20159;-64
2023/08/14 02:57:53;;;;;;;10.20;6.23;;;;;;;20.44;100.00;101844.44;2521110;23;20179;-64
2023/08/14 02:58:53;;;;;;;8.87;6.13;;;;;;;19.96;100.00;101782.66;2521350;23;20155;-64
2023/08/14 02:59:54;;;;;;;8.00;6.80;;;;;;;20.39;100.00;101845.06;2520951;23;20165;-64
2023/08/14 03:00:54;;;;;;;9.47;6.60;;;;;;;20.26;100.00;101841.63;2521214;23;20238;-64
2023/08/14 03:01:55;;;;;;;7.87;6.40;;;;;;;19.54;100.00;101714.22;2521516;23;20181;-64
2023/08/14 03:02:55;;;;;;;11.30;6.80;;;;;;;20.40;100.00;101852.25;2508154;23;20535;-64
2023/08/14 03:03:56;;;;;;;7.93;7.03;;;;;;;20.40;100.00;101857.09;2508854;23;20678;-64
2023/08/14 03:04:56;;;;;;;8.70;6.80;;;;;;;20.41;100.00;101853.81;2521420;23;20182;-64
2023/08/14 03:05:58;;;;;;;7.47;6.67;;;;;;;20.38;100.00;101860.41;2520852;23;20666;-64
2023/08/14 03:06:58;;;;;;;7.90;7.10;;;;;;;20.44;100.00;101852.88;2521421;23;20503;-64
2023/08/14 03:07:58;;;;;;;8.27;6.87;;;;;;;20.45;100.00;101856.47;2521092;23;20410;-64
2023/08/14 03:08:59;;;;;;;8.67;6.90;;;;;;;20.42;100.00;101855.34;2520873;23;20159;-64
2023/08/14 03:10:00;;;;;;;7.60;6.73;;;;;;;20.39;100.00;101855.53;2521167;23;20686;-64
2023/08/14 03:11:00;;;;;;;10.30;6.80;;;;;;;20.28;100.00;101835.53;2521368;23;20628;-64
2023/08/14 03:12:01;;;;;;;8.80;7.17;;;;;;;20.44;100.00;101857.72;2521270;23;20156;-64
2023/08/14 03:13:01;;;;;;;9.50;6.70;;;;;;;19.57;100.00;101718.88;2520943;23;20233;-64
2023/08/14 03:14:02;;;;;;;8.43;6.57;;;;;;;20.48;100.00;101853.50;2521274;23;20151;-64
2023/08/14 03:15:04;;;;;;;10.47;7.10;;;;;;;20.49;100.00;101851.44;2521240;23;20151;-64
2023/08/14 03:16:04;;;;;;;8.10;7.10;;;;;;;20.52;100.00;101856.16;2520824;23;20498;-64
2023/08/14 03:17:04;;;;;;;9.67;6.70;;;;;;;20.52;100.00;101854.09;2521127;23;20435;-64
2023/08/14 03:18:05;;;;;;;8.97;6.73;;;;;;;20.53;100.00;101850.03;2521005;23;20282;-65
2023/08/14 03:19:05;;;;;;;16.07;6.93;;;;;;;20.52;100.00;101862.56;2521410;23;20151;-65
2023/08/14 03:20:09;;;;;;;8.43;6.20;;;;;;;20.54;100.00;101857.25;2520809;23;20482;-64
2023/08/14 03:21:10;;;;;;;11.57;7.30;;;;;;;20.25;100.00;101816.75;2521165;23;20182;-64
2023/08/14 03:22:10;;;;;;;9.30;6.80;;;;;;;20.56;100.00;101856.75;2521360;23;20383;-64
2023/08/14 03:23:11;;;;;;;10.53;7.07;;;;;;;20.52;100.00;101847.72;2520302;23;20263;-65
2023/08/14 03:24:11;;;;;;;17.03;7.60;;;;;;;20.25;100.00;101811.13;2521401;23;20162;-64
2023/08/14 03:25:11;;;;;;;17.80;7.57;;;;;;;20.58;100.00;101855.03;2521251;23;20155;-64
2023/08/14 03:26:14;;;;;;;12.90;7.20;;;;;;;20.62;100.00;101857.69;2520900;23;20290;-64
2023/08/14 03:27:14;;;;;;;15.70;8.00;;;;;;;20.60;100.00;101858.16;2521189;23;20594;-64
2023/08/14 03:28:14;;;;;;;11.37;7.27;;;;;;;20.42;100.00;101835.66;2521627;23;20720;-65
2023/08/14 03:29:15;;;;;;;11.00;6.67;;;;;;;20.59;100.00;101864.28;2521429;23;20147;-65
2023/08/14 03:30:15;;;;;;;7.47;6.60;;;;;;;20.62;100.00;101857.69;2520804;23;20175;-64
2023/08/14 03:31:16;;;;;;;18.87;7.60;;;;;;;20.55;100.00;101852.38;2521249;23;20147;-64
2023/08/14 03:32:16;;;;;;;10.73;7.00;;;;;;;20.56;100.00;101860.34;2521218;23;20230;-64
2023/08/14 03:33:16;;;;;;;10.47;7.40;;;;;;;20.60;100.00;101863.00;2520769;23;20239;-64
2023/08/14 03:34:17;;;;;;;11.47;6.73;;;;;;;20.58;100.00;101851.44;2521272;23;20158;-65
2023/08/14 03:35:17;;;;;;;8.07;6.97;;;;;;;20.65;100.00;101859.56;2521330;23;20154;-64
2023/08/14 03:36:18;;;;;;;10.30;6.83;;;;;;;20.64;100.00;101858.78;2520674;23;20147;-64
2023/08/14 03:37:18;;;;;;;10.87;7.07;;;;;;;20.63;100.00;101865.66;2520722;23;20149;-64
2023/08/14 03:38:18;;;;;;;9.90;6.70;;;;;;;20.64;100.00;101863.63;2521103;23;20187;-64
2023/08/14 03:39:19;;;;;;;10.20;6.20;;;;;;;20.65;100.00;101868.81;2521276;23;20571;-64
2023/08/14 03:40:19;;;;;;;9.07;6.33;;;;;;;20.66;100.00;101866.75;2520871;23;20240;-64
2023/08/14 03:41:20;;;;;;;9.00;6.60;;;;;;;20.71;100.00;101860.47;2521162;23;20154;-64
2023/08/14 03:42:20;;;;;;;13.03;6.73;;;;;;;20.72;100.00;101867.69;2521232;23;20147;-64
2023/08/14 03:43:20;;;;;;;10.77;7.10;;;;;;;20.71;100.00;101857.66;2521339;23;20548;-64
2023/08/14 03:44:21;;;;;;;10.67;6.40;;;;;;;20.64;100.00;101852.38;2520690;23;20182;-64
2023/08/14 03:45:21;;;;;;;8.60;6.70;;;;;;;20.74;100.00;101863.16;2521345;23;20152;-64
2023/08/14 03:46:22;;;;;;;8.43;6.70;;;;;;;20.67;100.00;101855.03;2520445;23;20151;-65
2023/08/14 03:47:22;;;;;;;7.47;6.33;;;;;;;20.78;100.00;101871.44;2521135;23;20185;-64
2023/08/14 03:48:23;;;;;;;12.23;6.97;;;;;;;20.81;100.00;101876.91;2520873;23;20213;-64
2023/08/14 03:49:23;;;;;;;9.77;6.67;;;;;;;20.82;100.00;101866.44;2521399;23;20293;-65
2023/08/14 03:50:23;;;;;;;12.07;7.00;;;;;;;20.07;100.00;101754.81;2520265;23;20151;-64
2023/08/14 03:51:24;;;;;;;12.00;6.80;;;;;;;20.73;100.00;101858.75;2521063;23;20159;-65
2023/08/14 03:52:24;;;;;;;10.83;6.77;;;;;;;20.82;100.00;101877.69;2520768;23;20545;-64
2023/08/14 03:53:25;;;;;;;9.50;6.33;;;;;;;20.84;100.00;101878.00;2521327;23;20562;-64
2023/08/14 03:54:25;;;;;;;11.07;6.47;;;;;;;20.82;100.00;101880.53;2520435;23;20195;-64
2023/08/14 03:55:26;;;;;;;9.60;6.43;;;;;;;20.74;100.00;101879.28;2521320;23;20155;-64
2023/08/14 03:56:26;;;;;;;10.27;6.63;;;;;;;20.76;100.00;101873.94;2520538;23;20740;-64
2023/08/14 03:57:27;;;;;;;8.83;6.60;;;;;;;20.81;100.00;101881.75;2521077;23;20223;-64
2023/08/14 03:58:27;;;;;;;16.23;6.60;;;;;;;20.51;100.00;101835.66;2520969;23;20261;-64
2023/08/14 03:59:28;;;;;;;9.07;6.53;;;;;;;20.81;100.00;101885.34;2521410;23;20147;-64
2023/08/14 04:00:28;;;;;;;10.57;6.53;;;;;;;20.82;100.00;101884.09;2520508;23;20546;-64
2023/08/14 04:01:28;;;;;;;10.57;7.00;;;;;;;20.83;100.00;101887.72;2521183;23;20147;-65
2023/08/14 04:02:29;;;;;;;9.10;6.53;;;;;;;20.89;100.00;101885.81;2521070;23;20226;-64
2023/08/14 04:03:29;;;;;;;9.13;6.50;;;;;;;20.91;100.00;101903.84;2521207;23;20158;-64
2023/08/14 04:04:30;;;;;;;9.00;6.47;;;;;;;20.93;100.00;101894.91;2520621;23;20225;-64
2023/08/14 04:05:30;;;;;;;7.97;6.80;;;;;;;20.94;100.00;101893.66;2521323;23;20148;-64
2023/08/14 04:06:30;;;;;;;9.87;6.57;;;;;;;20.46;100.00;101829.88;2518972;23;20147;-64
2023/08/14 04:07:31;;;;;;;9.23;6.47;;;;;;;20.93;100.00;101887.22;2519899;23;20151;-64
2023/08/14 04:08:31;;;;;;;9.10;6.40;;;;;;;20.97;100.00;101889.88;2520916;23;20170;-64
2023/08/14 04:09:32;;;;;;;7.77;6.03;;;;;;;20.97;100.00;101890.66;2521214;23;20158;-64
2023/08/14 04:10:32;;;;;;;13.80;7.00;;;;;;;21.00;100.00;101900.22;2520528;23;20226;-64
2023/08/14 04:11:33;;;;;;;13.20;6.70;;;;;;;21.01;100.00;101891.28;2521215;23;20287;-64
2023/08/14 04:12:33;;;;;;;10.97;6.37;;;;;;;20.99;100.00;101901.47;2520930;23;20155;-64
2023/08/14 04:13:34;;;;;;;10.73;6.33;;;;;;;21.00;100.00;101897.41;2521280;23;20174;-64
2023/08/14 04:14:34;;;;;;;12.20;5.93;;;;;;;21.01;100.00;101899.75;2520542;23;20282;-64
2023/08/14 04:15:34;;;;;;;11.43;6.63;;;;;;;21.01;100.00;101902.56;2521208;23;20166;-64
2023/08/14 04:16:41;;;;;;;13.30;6.57;;;;;;;21.03;100.00;101893.66;2520422;23;20606;-64
2023/08/14 04:17:43;;;;;;;8.80;5.87;;;;;;;21.06;100.00;101903.94;2521072;23;20528;-64
2023/08/14 04:18:43;;;;;;;8.87;6.80;;;;;;;20.76;100.00;101857.81;2520895;23;20458;-64
2023/08/14 04:19:43;;;;;;;11.47;6.70;;;;;;;21.04;100.00;101893.16;2520969;23;20379;-64
2023/08/14 04:20:44;;;;;;;10.90;6.27;;;;;;;21.06;100.00;101910.38;2520279;23;20155;-64
2023/08/14 04:21:45;;;;;;;12.63;6.90;;;;;;;21.08;100.00;101907.88;2520912;23;20151;-65
2023/08/14 04:22:45;;;;;;;11.57;7.10;;;;;;;21.07;100.00;101914.75;2521126;23;20502;-64
2023/08/14 04:23:45;;;;;;;10.77;6.77;;;;;;;21.11;100.00;101906.94;2521124;23;20177;-64
2023/08/14 04:24:46;;;;;;;11.87;7.10;;;;;;;20.87;100.00;101858.09;2520769;23;20147;-64
2023/08/14 04:25:46;;;;;;;10.23;7.00;;;;;;;21.18;100.00;101914.28;2520349;23;20182;-65
2023/08/14 04:26:47;;;;;;;9.43;6.70;;;;;;;21.01;100.00;101885.66;2521101;23;20158;-64
2023/08/14 04:27:47;;;;;;;12.33;7.60;;;;;;;21.14;100.00;101905.19;2520896;23;20155;-64
2023/08/14 04:28:48;;;;;;;11.90;6.93;;;;;;;21.15;100.00;101904.72;2521040;23;20226;-64
2023/08/14 04:29:48;;;;;;;10.03;6.80;;;;;;;21.12;100.00;101910.50;2520704;23;20155;-64
2023/08/14 04:30:49;;;;;;;10.80;7.40;;;;;;;21.10;100.00;101911.00;2521147;23;20478;-64
2023/08/14 04:31:49;;;;;;;8.93;7.47;;;;;;;21.12;100.00;101916.94;2520971;23;20155;-64
2023/08/14 04:32:50;;;;;;;13.03;7.70;;;;;;;21.18;100.00;101914.28;2520875;23;20186;-64
2023/08/14 04:33:50;;;;;;;11.43;7.70;;;;;;;21.21;100.00;101911.28;2521007;23;20181;-64
2023/08/14 04:34:51;;;;;;;8.97;7.37;;;;;;;21.24;100.00;101907.50;2520343;23;20151;-64
2023/08/14 04:35:51;;;;;;;11.00;7.13;;;;;;;21.24;100.00;101909.56;2520062;23;20155;-64
2023/08/14 04:36:52;;;;;;;10.07;6.73;;;;;;;21.25;100.00;101909.06;2520818;23;20182;-64
2023/08/14 04:37:52;;;;;;;8.13;6.70;;;;;;;21.27;100.00;101915.00;2520740;23;20170;-64
2023/08/14 04:38:52;;;;;;;9.20;6.77;;;;;;;21.31;100.00;101920.47;2521185;23;20165;-60
2023/08/14 04:39:53;;;;;;;8.07;6.27;;;;;;;21.48;100.00;101919.63;2521463;23;20183;-60
2023/08/14 04:40:53;;;;;;;7.37;5.67;;;;;;;21.54;100.00;101923.34;2520958;23;20164;-62
2023/08/14 04:41:54;;;;;;;9.20;6.07;;;;;;;21.53;100.00;101924.63;2521620;23;20242;-61
2023/08/14 04:42:54;;;;;;;9.63;6.33;;;;;;;21.55;100.00;101918.50;2521887;23;20158;-61